sensor_id;sensor_type;location;lat;lon;timestamp;temperature;humidity
41290;DHT22;36117;46.680;11.154;2022-11-02T00:01:56;15.00;82.00
41290;DHT22;36117;46.680;11.154;2022-11-02T00:04:22;15.00;82.60
41290;DHT22;36117;46.680;11.154;2022-11-02T00:06:48;15.00;82.20
41290;DHT22;36117;46.680;11.154;2022-11-02T00:09:13;14.90;82.30
41290;DHT22;36117;46.680;11.154;2022-11-02T00:11:39;15.00;82.40
41290;DHT22;36117;46.680;11.154;2022-11-02T00:14:05;15.10;81.60
41290;DHT22;36117;46.680;11.154;2022-11-02T00:16:31;15.10;81.50
41290;DHT22;36117;46.680;11.154;2022-11-02T00:18:59;14.90;81.80
41290;DHT22;36117;46.680;11.154;2022-11-02T00:21:26;14.90;82.00
41290;DHT22;36117;46.680;11.154;2022-11-02T00:23:54;15.00;81.60
41290;DHT22;36117;46.680;11.154;2022-11-02T00:26:20;15.00;81.30
41290;DHT22;36117;46.680;11.154;2022-11-02T00:28:46;15.10;80.70
41290;DHT22;36117;46.680;11.154;2022-11-02T00:31:12;15.00;80.90
41290;DHT22;36117;46.680;11.154;2022-11-02T00:33:38;15.00;81.10
41290;DHT22;36117;46.680;11.154;2022-11-02T00:36:04;14.90;80.70
41290;DHT22;36117;46.680;11.154;2022-11-02T00:38:30;15.00;81.50
41290;DHT22;36117;46.680;11.154;2022-11-02T00:40:56;15.00;81.60
41290;DHT22;36117;46.680;11.154;2022-11-02T00:43:22;14.90;82.00
41290;DHT22;36117;46.680;11.154;2022-11-02T00:45:48;14.90;81.70
41290;DHT22;36117;46.680;11.154;2022-11-02T00:48:17;14.80;82.30
41290;DHT22;36117;46.680;11.154;2022-11-02T00:50:42;14.90;81.80
41290;DHT22;36117;46.680;11.154;2022-11-02T00:53:08;14.70;81.80
41290;DHT22;36117;46.680;11.154;2022-11-02T00:55:34;14.80;81.30
41290;DHT22;36117;46.680;11.154;2022-11-02T00:58:00;14.60;81.30
41290;DHT22;36117;46.680;11.154;2022-11-02T01:00:26;14.70;81.90
41290;DHT22;36117;46.680;11.154;2022-11-02T01:02:52;14.80;81.40
41290;DHT22;36117;46.680;11.154;2022-11-02T01:05:18;14.80;81.10
41290;DHT22;36117;46.680;11.154;2022-11-02T01:07:43;14.80;81.00
41290;DHT22;36117;46.680;11.154;2022-11-02T01:10:10;14.40;82.00
41290;DHT22;36117;46.680;11.154;2022-11-02T01:12:39;14.60;82.20
41290;DHT22;36117;46.680;11.154;2022-11-02T01:15:06;14.60;82.50
41290;DHT22;36117;46.680;11.154;2022-11-02T01:17:33;14.20;83.30
41290;DHT22;36117;46.680;11.154;2022-11-02T01:19:58;14.00;84.20
41290;DHT22;36117;46.680;11.154;2022-11-02T01:22:24;14.10;83.90
41290;DHT22;36117;46.680;11.154;2022-11-02T01:24:50;13.90;85.00
41290;DHT22;36117;46.680;11.154;2022-11-02T01:27:16;13.70;85.30
41290;DHT22;36117;46.680;11.154;2022-11-02T01:29:41;13.80;85.70
41290;DHT22;36117;46.680;11.154;2022-11-02T01:32:07;13.70;86.00
41290;DHT22;36117;46.680;11.154;2022-11-02T01:34:33;13.80;85.30
41290;DHT22;36117;46.680;11.154;2022-11-02T01:36:58;14.00;85.00
41290;DHT22;36117;46.680;11.154;2022-11-02T01:39:24;14.20;83.80
41290;DHT22;36117;46.680;11.154;2022-11-02T01:41:51;14.30;83.10
41290;DHT22;36117;46.680;11.154;2022-11-02T01:44:27;14.10;83.50
41290;DHT22;36117;46.680;11.154;2022-11-02T01:46:57;14.20;83.00
41290;DHT22;36117;46.680;11.154;2022-11-02T01:49:24;14.30;82.90
41290;DHT22;36117;46.680;11.154;2022-11-02T01:54:29;14.30;82.30
41290;DHT22;36117;46.680;11.154;2022-11-02T01:57:01;14.30;83.20
41290;DHT22;36117;46.680;11.154;2022-11-02T01:59:38;14.30;83.10
41290;DHT22;36117;46.680;11.154;2022-11-02T02:02:07;14.10;83.70
41290;DHT22;36117;46.680;11.154;2022-11-02T02:04:35;14.10;83.30
41290;DHT22;36117;46.680;11.154;2022-11-02T02:07:02;13.40;85.30
41290;DHT22;36117;46.680;11.154;2022-11-02T02:09:29;13.20;86.60
41290;DHT22;36117;46.680;11.154;2022-11-02T02:11:54;13.20;87.00
41290;DHT22;36117;46.680;11.154;2022-11-02T02:14:20;13.10;87.00
41290;DHT22;36117;46.680;11.154;2022-11-02T02:17:07;13.10;87.30
41290;DHT22;36117;46.680;11.154;2022-11-02T02:20:01;13.50;86.30
41290;DHT22;36117;46.680;11.154;2022-11-02T02:28:20;14.10;84.30
41290;DHT22;36117;46.680;11.154;2022-11-02T02:31:03;14.00;83.50
41290;DHT22;36117;46.680;11.154;2022-11-02T02:33:34;14.00;83.40
41290;DHT22;36117;46.680;11.154;2022-11-02T02:41:48;14.00;82.90
41290;DHT22;36117;46.680;11.154;2022-11-02T02:44:22;14.10;82.60
41290;DHT22;36117;46.680;11.154;2022-11-02T02:46:59;14.00;82.50
41290;DHT22;36117;46.680;11.154;2022-11-02T02:49:34;13.90;83.40
41290;DHT22;36117;46.680;11.154;2022-11-02T02:52:01;13.80;83.80
41290;DHT22;36117;46.680;11.154;2022-11-02T02:54:34;13.80;83.70
41290;DHT22;36117;46.680;11.154;2022-11-02T02:57:09;13.80;83.80
41290;DHT22;36117;46.680;11.154;2022-11-02T02:59:41;13.90;83.30
41290;DHT22;36117;46.680;11.154;2022-11-02T03:04:50;14.10;82.60
41290;DHT22;36117;46.680;11.154;2022-11-02T03:07:25;13.90;83.20
41290;DHT22;36117;46.680;11.154;2022-11-02T03:10:13;13.90;83.00
41290;DHT22;36117;46.680;11.154;2022-11-02T03:15:41;14.00;82.60
41290;DHT22;36117;46.680;11.154;2022-11-02T03:24:03;13.80;83.20
41290;DHT22;36117;46.680;11.154;2022-11-02T03:26:46;13.80;83.50
41290;DHT22;36117;46.680;11.154;2022-11-02T03:29:27;13.80;82.80
41290;DHT22;36117;46.680;11.154;2022-11-02T03:31:58;14.00;82.40
41290;DHT22;36117;46.680;11.154;2022-11-02T03:34:37;14.00;82.30
41290;DHT22;36117;46.680;11.154;2022-11-02T03:37:10;13.90;82.60
41290;DHT22;36117;46.680;11.154;2022-11-02T03:39:41;13.70;82.70
41290;DHT22;36117;46.680;11.154;2022-11-02T03:42:11;13.90;82.80
41290;DHT22;36117;46.680;11.154;2022-11-02T03:44:38;14.00;82.10
41290;DHT22;36117;46.680;11.154;2022-11-02T03:47:07;13.90;82.20
41290;DHT22;36117;46.680;11.154;2022-11-02T03:49:36;13.70;82.70
41290;DHT22;36117;46.680;11.154;2022-11-02T03:52:07;13.60;83.20
41290;DHT22;36117;46.680;11.154;2022-11-02T03:54:42;13.70;83.40
41290;DHT22;36117;46.680;11.154;2022-11-02T03:57:18;13.60;83.50
41290;DHT22;36117;46.680;11.154;2022-11-02T03:59:46;13.70;82.50
41290;DHT22;36117;46.680;11.154;2022-11-02T04:02:13;13.70;83.20
41290;DHT22;36117;46.680;11.154;2022-11-02T04:04:51;13.60;82.90
41290;DHT22;36117;46.680;11.154;2022-11-02T04:07:23;13.60;82.90
41290;DHT22;36117;46.680;11.154;2022-11-02T04:09:51;13.50;83.20
41290;DHT22;36117;46.680;11.154;2022-11-02T04:12:17;13.50;83.00
41290;DHT22;36117;46.680;11.154;2022-11-02T04:15:01;13.60;82.60
41290;DHT22;36117;46.680;11.154;2022-11-02T04:17:27;13.60;82.40
41290;DHT22;36117;46.680;11.154;2022-11-02T04:20:11;13.20;84.00
41290;DHT22;36117;46.680;11.154;2022-11-02T04:22:37;13.10;84.50
41290;DHT22;36117;46.680;11.154;2022-11-02T04:25:21;13.10;84.80
41290;DHT22;36117;46.680;11.154;2022-11-02T04:27:49;13.10;84.30
41290;DHT22;36117;46.680;11.154;2022-11-02T04:30:17;13.20;84.60
41290;DHT22;36117;46.680;11.154;2022-11-02T04:32:46;13.40;84.10
41290;DHT22;36117;46.680;11.154;2022-11-02T04:35:30;13.50;82.80
41290;DHT22;36117;46.680;11.154;2022-11-02T04:37:57;13.40;82.90
41290;DHT22;36117;46.680;11.154;2022-11-02T04:40:41;13.30;82.50
41290;DHT22;36117;46.680;11.154;2022-11-02T04:43:07;13.30;83.40
41290;DHT22;36117;46.680;11.154;2022-11-02T04:45:33;13.40;82.40
41290;DHT22;36117;46.680;11.154;2022-11-02T04:48:03;13.20;82.70
41290;DHT22;36117;46.680;11.154;2022-11-02T04:50:30;13.30;83.40
41290;DHT22;36117;46.680;11.154;2022-11-02T04:53:00;13.40;83.60
41290;DHT22;36117;46.680;11.154;2022-11-02T04:55:27;13.40;82.40
41290;DHT22;36117;46.680;11.154;2022-11-02T04:57:53;13.40;82.80
41290;DHT22;36117;46.680;11.154;2022-11-02T05:00:20;13.50;82.00
41290;DHT22;36117;46.680;11.154;2022-11-02T05:02:49;13.50;82.50
41290;DHT22;36117;46.680;11.154;2022-11-02T05:05:16;13.50;83.60
41290;DHT22;36117;46.680;11.154;2022-11-02T05:07:42;13.30;83.10
41290;DHT22;36117;46.680;11.154;2022-11-02T05:10:09;12.90;84.10
41290;DHT22;36117;46.680;11.154;2022-11-02T05:12:35;13.00;85.00
41290;DHT22;36117;46.680;11.154;2022-11-02T05:15:01;13.00;84.50
41290;DHT22;36117;46.680;11.154;2022-11-02T05:17:27;13.10;84.20
41290;DHT22;36117;46.680;11.154;2022-11-02T05:19:53;13.00;83.80
41290;DHT22;36117;46.680;11.154;2022-11-02T05:22:18;13.00;84.20
41290;DHT22;36117;46.680;11.154;2022-11-02T05:24:45;13.10;84.00
41290;DHT22;36117;46.680;11.154;2022-11-02T05:27:11;13.20;84.10
41290;DHT22;36117;46.680;11.154;2022-11-02T05:29:37;13.30;83.50
41290;DHT22;36117;46.680;11.154;2022-11-02T05:32:03;13.40;83.10
41290;DHT22;36117;46.680;11.154;2022-11-02T05:34:28;13.40;83.50
41290;DHT22;36117;46.680;11.154;2022-11-02T05:36:54;13.40;83.00
41290;DHT22;36117;46.680;11.154;2022-11-02T05:39:20;13.20;83.00
41290;DHT22;36117;46.680;11.154;2022-11-02T05:41:46;13.20;83.30
41290;DHT22;36117;46.680;11.154;2022-11-02T05:44:11;13.40;83.10
41290;DHT22;36117;46.680;11.154;2022-11-02T05:46:37;13.40;82.90
41290;DHT22;36117;46.680;11.154;2022-11-02T05:49:03;13.30;83.30
41290;DHT22;36117;46.680;11.154;2022-11-02T05:51:29;13.30;83.30
41290;DHT22;36117;46.680;11.154;2022-11-02T05:53:54;13.10;83.70
41290;DHT22;36117;46.680;11.154;2022-11-02T05:56:20;12.90;84.20
41290;DHT22;36117;46.680;11.154;2022-11-02T05:58:45;12.80;84.60
41290;DHT22;36117;46.680;11.154;2022-11-02T06:01:11;12.80;84.50
41290;DHT22;36117;46.680;11.154;2022-11-02T06:03:37;12.70;84.40
41290;DHT22;36117;46.680;11.154;2022-11-02T06:06:05;12.80;84.70
41290;DHT22;36117;46.680;11.154;2022-11-02T06:08:35;12.70;84.40
41290;DHT22;36117;46.680;11.154;2022-11-02T06:11:05;12.60;84.80
41290;DHT22;36117;46.680;11.154;2022-11-02T06:13:31;12.60;84.70
41290;DHT22;36117;46.680;11.154;2022-11-02T06:16:00;12.70;84.50
41290;DHT22;36117;46.680;11.154;2022-11-02T06:18:26;12.70;84.50
41290;DHT22;36117;46.680;11.154;2022-11-02T06:20:55;12.80;83.80
41290;DHT22;36117;46.680;11.154;2022-11-02T06:23:21;13.00;83.10
41290;DHT22;36117;46.680;11.154;2022-11-02T06:25:54;13.20;82.70
41290;DHT22;36117;46.680;11.154;2022-11-02T06:28:20;13.10;82.60
41290;DHT22;36117;46.680;11.154;2022-11-02T06:30:46;13.00;83.20
41290;DHT22;36117;46.680;11.154;2022-11-02T06:33:12;13.30;82.60
41290;DHT22;36117;46.680;11.154;2022-11-02T06:35:38;13.40;82.10
41290;DHT22;36117;46.680;11.154;2022-11-02T06:38:03;13.70;81.50
41290;DHT22;36117;46.680;11.154;2022-11-02T06:40:29;13.50;81.20
41290;DHT22;36117;46.680;11.154;2022-11-02T06:42:56;13.50;81.80
41290;DHT22;36117;46.680;11.154;2022-11-02T06:45:22;13.60;81.40
41290;DHT22;36117;46.680;11.154;2022-11-02T06:47:48;13.50;81.60
41290;DHT22;36117;46.680;11.154;2022-11-02T06:50:14;13.40;81.40
41290;DHT22;36117;46.680;11.154;2022-11-02T06:52:45;13.50;81.20
41290;DHT22;36117;46.680;11.154;2022-11-02T06:55:12;13.70;81.30
41290;DHT22;36117;46.680;11.154;2022-11-02T06:57:38;13.90;79.90
41290;DHT22;36117;46.680;11.154;2022-11-02T07:00:06;13.80;79.90
41290;DHT22;36117;46.680;11.154;2022-11-02T07:02:32;13.70;80.00
41290;DHT22;36117;46.680;11.154;2022-11-02T07:04:58;13.70;80.60
41290;DHT22;36117;46.680;11.154;2022-11-02T07:07:24;13.60;80.70
41290;DHT22;36117;46.680;11.154;2022-11-02T07:09:50;13.70;80.80
41290;DHT22;36117;46.680;11.154;2022-11-02T07:12:16;13.90;79.90
41290;DHT22;36117;46.680;11.154;2022-11-02T07:14:41;13.90;79.30
41290;DHT22;36117;46.680;11.154;2022-11-02T07:17:07;13.80;80.00
41290;DHT22;36117;46.680;11.154;2022-11-02T07:19:33;13.80;79.80
41290;DHT22;36117;46.680;11.154;2022-11-02T07:21:58;13.80;80.30
41290;DHT22;36117;46.680;11.154;2022-11-02T07:24:24;14.20;79.90
41290;DHT22;36117;46.680;11.154;2022-11-02T07:26:50;15.00;78.20
41290;DHT22;36117;46.680;11.154;2022-11-02T07:29:16;15.80;75.20
41290;DHT22;36117;46.680;11.154;2022-11-02T07:31:42;16.50;72.60
41290;DHT22;36117;46.680;11.154;2022-11-02T07:34:08;16.80;70.90
41290;DHT22;36117;46.680;11.154;2022-11-02T07:36:33;17.30;70.30
41290;DHT22;36117;46.680;11.154;2022-11-02T07:38:59;17.80;68.80
41290;DHT22;36117;46.680;11.154;2022-11-02T07:41:25;18.40;67.10
41290;DHT22;36117;46.680;11.154;2022-11-02T07:43:51;19.10;65.60
41290;DHT22;36117;46.680;11.154;2022-11-02T07:46:17;19.80;63.10
41290;DHT22;36117;46.680;11.154;2022-11-02T07:48:43;19.80;62.00
41290;DHT22;36117;46.680;11.154;2022-11-02T07:51:09;20.50;61.40
41290;DHT22;36117;46.680;11.154;2022-11-02T07:53:36;21.10;59.50
41290;DHT22;36117;46.680;11.154;2022-11-02T07:56:05;21.50;57.30
41290;DHT22;36117;46.680;11.154;2022-11-02T07:58:32;22.00;56.00
41290;DHT22;36117;46.680;11.154;2022-11-02T08:00:59;22.30;55.20
41290;DHT22;36117;46.680;11.154;2022-11-02T08:03:26;22.60;53.80
41290;DHT22;36117;46.680;11.154;2022-11-02T08:05:52;23.00;52.80
41290;DHT22;36117;46.680;11.154;2022-11-02T08:08:20;23.10;52.20
41290;DHT22;36117;46.680;11.154;2022-11-02T08:10:48;23.30;51.60
41290;DHT22;36117;46.680;11.154;2022-11-02T08:13:17;23.30;51.20
41290;DHT22;36117;46.680;11.154;2022-11-02T08:15:43;23.60;50.80
41290;DHT22;36117;46.680;11.154;2022-11-02T08:18:32;23.30;50.90
41290;DHT22;36117;46.680;11.154;2022-11-02T08:20:58;23.40;50.20
41290;DHT22;36117;46.680;11.154;2022-11-02T08:23:25;23.20;50.10
41290;DHT22;36117;46.680;11.154;2022-11-02T08:25:52;23.40;49.60
41290;DHT22;36117;46.680;11.154;2022-11-02T08:28:21;23.90;49.60
41290;DHT22;36117;46.680;11.154;2022-11-02T08:30:47;24.60;48.70
41290;DHT22;36117;46.680;11.154;2022-11-02T08:33:14;24.80;46.70
41290;DHT22;36117;46.680;11.154;2022-11-02T08:35:42;24.90;46.60
41290;DHT22;36117;46.680;11.154;2022-11-02T08:38:08;24.80;46.40
41290;DHT22;36117;46.680;11.154;2022-11-02T08:40:35;25.30;46.60
41290;DHT22;36117;46.680;11.154;2022-11-02T08:43:08;26.10;45.30
41290;DHT22;36117;46.680;11.154;2022-11-02T08:45:35;27.00;43.40
41290;DHT22;36117;46.680;11.154;2022-11-02T08:48:03;26.90;43.50
41290;DHT22;36117;46.680;11.154;2022-11-02T08:50:29;27.20;43.00
41290;DHT22;36117;46.680;11.154;2022-11-02T08:52:55;27.30;42.50
41290;DHT22;36117;46.680;11.154;2022-11-02T08:55:21;27.00;42.10
41290;DHT22;36117;46.680;11.154;2022-11-02T08:57:50;26.90;43.50
41290;DHT22;36117;46.680;11.154;2022-11-02T09:00:18;27.00;43.00
41290;DHT22;36117;46.680;11.154;2022-11-02T09:02:57;27.30;42.10
41290;DHT22;36117;46.680;11.154;2022-11-02T09:05:23;27.60;41.40
41290;DHT22;36117;46.680;11.154;2022-11-02T09:07:57;27.90;41.50
41290;DHT22;36117;46.680;11.154;2022-11-02T09:10:24;28.00;40.50
41290;DHT22;36117;46.680;11.154;2022-11-02T09:12:50;28.50;40.30
41290;DHT22;36117;46.680;11.154;2022-11-02T09:15:16;28.70;39.60
41290;DHT22;36117;46.680;11.154;2022-11-02T09:17:41;29.00;39.00
41290;DHT22;36117;46.680;11.154;2022-11-02T09:20:10;29.20;38.50
41290;DHT22;36117;46.680;11.154;2022-11-02T09:22:35;30.00;37.60
41290;DHT22;36117;46.680;11.154;2022-11-02T09:25:01;30.40;37.30
41290;DHT22;36117;46.680;11.154;2022-11-02T09:27:27;30.50;36.40
41290;DHT22;36117;46.680;11.154;2022-11-02T09:29:53;30.90;36.30
41290;DHT22;36117;46.680;11.154;2022-11-02T09:32:18;30.80;36.40
41290;DHT22;36117;46.680;11.154;2022-11-02T09:34:44;30.80;36.50
41290;DHT22;36117;46.680;11.154;2022-11-02T09:37:11;31.00;36.10
41290;DHT22;36117;46.680;11.154;2022-11-02T09:39:37;30.30;36.40
41290;DHT22;36117;46.680;11.154;2022-11-02T09:42:10;28.90;38.30
41290;DHT22;36117;46.680;11.154;2022-11-02T09:44:52;28.20;39.60
41290;DHT22;36117;46.680;11.154;2022-11-02T09:47:21;28.10;39.80
41290;DHT22;36117;46.680;11.154;2022-11-02T09:49:48;27.90;40.90
41290;DHT22;36117;46.680;11.154;2022-11-02T09:52:36;28.10;40.50
41290;DHT22;36117;46.680;11.154;2022-11-02T09:55:08;27.90;40.20
41290;DHT22;36117;46.680;11.154;2022-11-02T09:57:37;27.70;40.40
41290;DHT22;36117;46.680;11.154;2022-11-02T10:00:04;27.80;41.10
41290;DHT22;36117;46.680;11.154;2022-11-02T10:02:45;27.80;40.10
41290;DHT22;36117;46.680;11.154;2022-11-02T10:08:21;28.50;39.60
41290;DHT22;36117;46.680;11.154;2022-11-02T10:14:07;28.50;39.60
41290;DHT22;36117;46.680;11.154;2022-11-02T10:19:14;29.00;38.20
41290;DHT22;36117;46.680;11.154;2022-11-02T10:21:45;28.00;39.10
41290;DHT22;36117;46.680;11.154;2022-11-02T10:24:47;27.90;39.30
41290;DHT22;36117;46.680;11.154;2022-11-02T10:27:25;29.00;39.00
41290;DHT22;36117;46.680;11.154;2022-11-02T10:32:17;29.60;36.40
41290;DHT22;36117;46.680;11.154;2022-11-02T10:34:43;29.40;37.00
41290;DHT22;36117;46.680;11.154;2022-11-02T10:37:40;29.50;37.30
41290;DHT22;36117;46.680;11.154;2022-11-02T10:40:15;28.80;37.50
41290;DHT22;36117;46.680;11.154;2022-11-02T10:53:13;27.90;39.10
41290;DHT22;36117;46.680;11.154;2022-11-02T10:58:43;27.60;39.10
41290;DHT22;36117;46.680;11.154;2022-11-02T11:01:11;28.00;39.40
41290;DHT22;36117;46.680;11.154;2022-11-02T11:04:04;28.10;39.10
41290;DHT22;36117;46.680;11.154;2022-11-02T11:06:38;28.10;38.70
41290;DHT22;36117;46.680;11.154;2022-11-02T11:12:05;25.80;41.00
41290;DHT22;36117;46.680;11.154;2022-11-02T11:15:04;25.60;41.60
41290;DHT22;36117;46.680;11.154;2022-11-02T11:17:36;25.80;41.80
41290;DHT22;36117;46.680;11.154;2022-11-02T11:20:06;25.80;41.30
41290;DHT22;36117;46.680;11.154;2022-11-02T11:22:39;25.90;41.40
41290;DHT22;36117;46.680;11.154;2022-11-02T11:27:48;25.60;41.90
41290;DHT22;36117;46.680;11.154;2022-11-02T11:30:33;25.70;42.20
41290;DHT22;36117;46.680;11.154;2022-11-02T11:33:02;25.90;42.30
41290;DHT22;36117;46.680;11.154;2022-11-02T11:35:36;25.40;42.40
41290;DHT22;36117;46.680;11.154;2022-11-02T11:38:14;25.90;41.90
41290;DHT22;36117;46.680;11.154;2022-11-02T11:40:44;26.40;40.90
41290;DHT22;36117;46.680;11.154;2022-11-02T11:43:16;26.20;40.40
41290;DHT22;36117;46.680;11.154;2022-11-02T11:46:02;26.60;40.60
41290;DHT22;36117;46.680;11.154;2022-11-02T11:51:01;26.90;40.40
41290;DHT22;36117;46.680;11.154;2022-11-02T11:53:28;26.90;40.00
41290;DHT22;36117;46.680;11.154;2022-11-02T11:55:56;26.50;40.50
41290;DHT22;36117;46.680;11.154;2022-11-02T11:58:29;25.80;41.40
41290;DHT22;36117;46.680;11.154;2022-11-02T12:01:15;25.70;41.80
41290;DHT22;36117;46.680;11.154;2022-11-02T12:03:52;25.60;41.60
41290;DHT22;36117;46.680;11.154;2022-11-02T12:17:09;23.70;44.90
41290;DHT22;36117;46.680;11.154;2022-11-02T12:22:49;23.70;45.40
41290;DHT22;36117;46.680;11.154;2022-11-02T12:28:16;23.50;45.90
41290;DHT22;36117;46.680;11.154;2022-11-02T12:36:38;24.30;43.70
41290;DHT22;36117;46.680;11.154;2022-11-02T12:39:54;24.50;43.30
41290;DHT22;36117;46.680;11.154;2022-11-02T12:48:02;24.00;44.20
41290;DHT22;36117;46.680;11.154;2022-11-02T12:50:52;23.70;44.50
41290;DHT22;36117;46.680;11.154;2022-11-02T12:56:33;23.90;44.50
41290;DHT22;36117;46.680;11.154;2022-11-02T12:59:04;23.80;44.60
41290;DHT22;36117;46.680;11.154;2022-11-02T13:01:31;24.00;44.10
41290;DHT22;36117;46.680;11.154;2022-11-02T13:04:21;23.80;44.60
41290;DHT22;36117;46.680;11.154;2022-11-02T13:06:56;23.90;44.90
41290;DHT22;36117;46.680;11.154;2022-11-02T13:12:07;23.70;45.00
41290;DHT22;36117;46.680;11.154;2022-11-02T13:14:46;23.70;44.90
41290;DHT22;36117;46.680;11.154;2022-11-02T13:17:29;23.90;44.90
41290;DHT22;36117;46.680;11.154;2022-11-02T13:20:01;23.70;45.30
41290;DHT22;36117;46.680;11.154;2022-11-02T13:22:34;24.70;46.20
41290;DHT22;36117;46.680;11.154;2022-11-02T13:25:26;23.60;45.80
41290;DHT22;36117;46.680;11.154;2022-11-02T13:27:53;23.40;46.00
41290;DHT22;36117;46.680;11.154;2022-11-02T13:30:20;23.90;45.80
41290;DHT22;36117;46.680;11.154;2022-11-02T13:33:00;23.60;45.50
41290;DHT22;36117;46.680;11.154;2022-11-02T13:35:36;23.20;45.80
41290;DHT22;36117;46.680;11.154;2022-11-02T13:40:40;22.80;46.90
41290;DHT22;36117;46.680;11.154;2022-11-02T13:49:00;22.20;48.60
41290;DHT22;36117;46.680;11.154;2022-11-02T13:51:42;21.60;49.70
41290;DHT22;36117;46.680;11.154;2022-11-02T13:56:41;22.20;50.60
41290;DHT22;36117;46.680;11.154;2022-11-02T13:59:16;22.10;49.90
41290;DHT22;36117;46.680;11.154;2022-11-02T14:01:43;22.30;49.90
41290;DHT22;36117;46.680;11.154;2022-11-02T14:04:11;22.30;50.10
41290;DHT22;36117;46.680;11.154;2022-11-02T14:06:50;21.90;50.20
41290;DHT22;36117;46.680;11.154;2022-11-02T14:09:29;21.90;50.30
41290;DHT22;36117;46.680;11.154;2022-11-02T14:14:45;21.50;51.50
41290;DHT22;36117;46.680;11.154;2022-11-02T14:17:12;21.70;51.80
41290;DHT22;36117;46.680;11.154;2022-11-02T14:19:49;21.50;51.80
41290;DHT22;36117;46.680;11.154;2022-11-02T14:22:17;21.60;52.00
41290;DHT22;36117;46.680;11.154;2022-11-02T14:32:38;21.60;52.90
41290;DHT22;36117;46.680;11.154;2022-11-02T14:38:25;21.40;53.60
41290;DHT22;36117;46.680;11.154;2022-11-02T14:41:13;21.40;53.50
41290;DHT22;36117;46.680;11.154;2022-11-02T14:49:03;22.00;51.90
41290;DHT22;36117;46.680;11.154;2022-11-02T14:51:35;22.20;51.60
41290;DHT22;36117;46.680;11.154;2022-11-02T14:54:05;22.10;50.80
41290;DHT22;36117;46.680;11.154;2022-11-02T14:57:00;22.00;51.10
41290;DHT22;36117;46.680;11.154;2022-11-02T14:59:39;22.10;51.40
41290;DHT22;36117;46.680;11.154;2022-11-02T15:04:52;21.80;53.40
41290;DHT22;36117;46.680;11.154;2022-11-02T15:07:47;22.00;53.30
41290;DHT22;36117;46.680;11.154;2022-11-02T15:12:46;21.50;55.60
41290;DHT22;36117;46.680;11.154;2022-11-02T15:15:32;21.60;56.50
41290;DHT22;36117;46.680;11.154;2022-11-02T15:18:18;21.50;56.00
41290;DHT22;36117;46.680;11.154;2022-11-02T15:20:45;21.40;56.20
41290;DHT22;36117;46.680;11.154;2022-11-02T15:23:24;21.10;56.60
41290;DHT22;36117;46.680;11.154;2022-11-02T15:25:53;21.00;56.30
41290;DHT22;36117;46.680;11.154;2022-11-02T15:28:24;21.10;56.50
41290;DHT22;36117;46.680;11.154;2022-11-02T15:31:02;21.10;57.20
41290;DHT22;36117;46.680;11.154;2022-11-02T15:33:38;21.30;57.60
41290;DHT22;36117;46.680;11.154;2022-11-02T15:36:12;21.00;57.30
41290;DHT22;36117;46.680;11.154;2022-11-02T15:38:39;21.00;58.00
41290;DHT22;36117;46.680;11.154;2022-11-02T15:41:29;21.00;58.10
41290;DHT22;36117;46.680;11.154;2022-11-02T15:44:31;21.00;57.60
41290;DHT22;36117;46.680;11.154;2022-11-02T15:47:32;21.00;58.30
41290;DHT22;36117;46.680;11.154;2022-11-02T15:50:16;20.90;58.80
41290;DHT22;36117;46.680;11.154;2022-11-02T15:58:10;20.70;59.80
41290;DHT22;36117;46.680;11.154;2022-11-02T16:00:38;20.40;60.30
41290;DHT22;36117;46.680;11.154;2022-11-02T16:03:08;20.30;61.10
41290;DHT22;36117;46.680;11.154;2022-11-02T16:05:41;20.30;61.50
41290;DHT22;36117;46.680;11.154;2022-11-02T16:10:47;19.50;64.40
41290;DHT22;36117;46.680;11.154;2022-11-02T16:13:15;19.40;65.80
41290;DHT22;36117;46.680;11.154;2022-11-02T16:15:43;19.40;66.30
41290;DHT22;36117;46.680;11.154;2022-11-02T16:18:26;19.60;64.40
41290;DHT22;36117;46.680;11.154;2022-11-02T16:20:54;19.40;63.90
41290;DHT22;36117;46.680;11.154;2022-11-02T16:23:24;19.40;64.70
41290;DHT22;36117;46.680;11.154;2022-11-02T16:25:51;19.50;64.70
41290;DHT22;36117;46.680;11.154;2022-11-02T16:28:22;19.60;65.20
41290;DHT22;36117;46.680;11.154;2022-11-02T16:33:50;19.50;65.50
41290;DHT22;36117;46.680;11.154;2022-11-02T16:36:21;19.40;65.60
41290;DHT22;36117;46.680;11.154;2022-11-02T16:41:46;19.00;66.00
41290;DHT22;36117;46.680;11.154;2022-11-02T16:44:23;19.00;66.30
41290;DHT22;36117;46.680;11.154;2022-11-02T16:49:20;18.90;66.40
41290;DHT22;36117;46.680;11.154;2022-11-02T16:51:54;18.80;67.00
41290;DHT22;36117;46.680;11.154;2022-11-02T16:54:40;18.80;67.40
41290;DHT22;36117;46.680;11.154;2022-11-02T16:57:22;18.80;67.20
41290;DHT22;36117;46.680;11.154;2022-11-02T17:02:30;18.50;68.20
41290;DHT22;36117;46.680;11.154;2022-11-02T17:04:57;18.60;68.70
41290;DHT22;36117;46.680;11.154;2022-11-02T17:07:28;18.40;68.90
41290;DHT22;36117;46.680;11.154;2022-11-02T17:09:56;18.50;68.50
41290;DHT22;36117;46.680;11.154;2022-11-02T17:12:39;18.50;68.40
41290;DHT22;36117;46.680;11.154;2022-11-02T17:15:19;18.50;68.50
41290;DHT22;36117;46.680;11.154;2022-11-02T17:17:45;18.40;69.00
41290;DHT22;36117;46.680;11.154;2022-11-02T17:23:00;18.30;69.10
41290;DHT22;36117;46.680;11.154;2022-11-02T17:25:29;18.30;69.10
41290;DHT22;36117;46.680;11.154;2022-11-02T17:27:57;18.10;69.80
41290;DHT22;36117;46.680;11.154;2022-11-02T17:33:17;18.10;70.40
41290;DHT22;36117;46.680;11.154;2022-11-02T17:35:47;18.10;70.40
41290;DHT22;36117;46.680;11.154;2022-11-02T17:38:14;17.70;71.90
41290;DHT22;36117;46.680;11.154;2022-11-02T17:40:41;17.20;74.50
41290;DHT22;36117;46.680;11.154;2022-11-02T17:43:07;16.90;75.90
41290;DHT22;36117;46.680;11.154;2022-11-02T17:45:34;17.20;76.00
41290;DHT22;36117;46.680;11.154;2022-11-02T17:48:08;17.10;75.70
41290;DHT22;36117;46.680;11.154;2022-11-02T17:50:36;17.20;75.90
41290;DHT22;36117;46.680;11.154;2022-11-02T17:53:03;17.20;75.40
41290;DHT22;36117;46.680;11.154;2022-11-02T17:55:31;17.10;75.00
41290;DHT22;36117;46.680;11.154;2022-11-02T17:57:58;17.30;74.50
41290;DHT22;36117;46.680;11.154;2022-11-02T18:00:25;17.20;74.10
41290;DHT22;36117;46.680;11.154;2022-11-02T18:02:54;17.40;74.80
41290;DHT22;36117;46.680;11.154;2022-11-02T18:07:49;17.20;74.10
41290;DHT22;36117;46.680;11.154;2022-11-02T18:10:16;17.10;75.30
41290;DHT22;36117;46.680;11.154;2022-11-02T18:12:43;17.00;76.20